sensor_id;sensor_type;location;lat;lon;timestamp;temperature;humidity
76139;DHT22;65138;50.946;7.074;2023-03-23T00:02:37;18.40;58.00
76139;DHT22;65138;50.946;7.074;2023-03-23T00:05:06;18.40;58.00
76139;DHT22;65138;50.946;7.074;2023-03-23T00:07:33;18.40;58.00
76139;DHT22;65138;50.946;7.074;2023-03-23T00:09:59;18.30;58.00
76139;DHT22;65138;50.946;7.074;2023-03-23T00:12:29;18.30;58.00
76139;DHT22;65138;50.946;7.074;2023-03-23T00:15:08;18.30;58.00
76139;DHT22;65138;50.946;7.074;2023-03-23T00:17:34;18.30;58.10
76139;DHT22;65138;50.946;7.074;2023-03-23T00:20:01;18.30;58.10
76139;DHT22;65138;50.946;7.074;2023-03-23T00:22:30;18.30;58.10
76139;DHT22;65138;50.946;7.074;2023-03-23T00:24:56;18.30;58.10
76139;DHT22;65138;50.946;7.074;2023-03-23T00:27:22;18.30;58.20
76139;DHT22;65138;50.946;7.074;2023-03-23T00:29:49;18.20;58.20
76139;DHT22;65138;50.946;7.074;2023-03-23T00:32:22;18.20;58.20
76139;DHT22;65138;50.946;7.074;2023-03-23T00:34:55;18.20;58.20
76139;DHT22;65138;50.946;7.074;2023-03-23T00:37:22;18.20;58.30
76139;DHT22;65138;50.946;7.074;2023-03-23T00:39:48;18.20;58.20
76139;DHT22;65138;50.946;7.074;2023-03-23T00:42:15;18.20;58.20
76139;DHT22;65138;50.946;7.074;2023-03-23T00:44:42;18.20;58.30
76139;DHT22;65138;50.946;7.074;2023-03-23T00:47:10;18.20;58.30
76139;DHT22;65138;50.946;7.074;2023-03-23T00:49:37;18.20;58.30
76139;DHT22;65138;50.946;7.074;2023-03-23T00:52:05;18.20;58.30
76139;DHT22;65138;50.946;7.074;2023-03-23T00:54:31;18.10;58.30
76139;DHT22;65138;50.946;7.074;2023-03-23T00:56:58;18.10;58.40
76139;DHT22;65138;50.946;7.074;2023-03-23T00:59:24;18.10;58.40
76139;DHT22;65138;50.946;7.074;2023-03-23T01:01:50;18.10;58.40
76139;DHT22;65138;50.946;7.074;2023-03-23T01:04:16;18.10;58.50
76139;DHT22;65138;50.946;7.074;2023-03-23T01:06:43;18.10;58.40
76139;DHT22;65138;50.946;7.074;2023-03-23T01:09:11;18.10;58.40
76139;DHT22;65138;50.946;7.074;2023-03-23T01:11:40;18.10;58.40
76139;DHT22;65138;50.946;7.074;2023-03-23T01:14:06;18.10;58.50
76139;DHT22;65138;50.946;7.074;2023-03-23T01:16:31;18.10;58.50
76139;DHT22;65138;50.946;7.074;2023-03-23T01:18:57;18.10;58.50
76139;DHT22;65138;50.946;7.074;2023-03-23T01:21:23;18.10;58.50
76139;DHT22;65138;50.946;7.074;2023-03-23T01:23:50;18.00;58.50
76139;DHT22;65138;50.946;7.074;2023-03-23T01:26:20;18.00;58.50
76139;DHT22;65138;50.946;7.074;2023-03-23T01:28:45;18.00;58.50
76139;DHT22;65138;50.946;7.074;2023-03-23T01:31:14;18.00;58.50
76139;DHT22;65138;50.946;7.074;2023-03-23T01:33:40;18.00;58.60
76139;DHT22;65138;50.946;7.074;2023-03-23T01:36:12;18.00;58.60
76139;DHT22;65138;50.946;7.074;2023-03-23T01:38:40;18.00;58.60
76139;DHT22;65138;50.946;7.074;2023-03-23T01:41:06;18.00;58.60
76139;DHT22;65138;50.946;7.074;2023-03-23T01:43:32;18.00;58.60
76139;DHT22;65138;50.946;7.074;2023-03-23T01:45:57;18.00;58.60
76139;DHT22;65138;50.946;7.074;2023-03-23T01:48:26;18.00;58.70
76139;DHT22;65138;50.946;7.074;2023-03-23T01:50:59;17.90;58.70
76139;DHT22;65138;50.946;7.074;2023-03-23T01:53:32;17.90;58.70
76139;DHT22;65138;50.946;7.074;2023-03-23T01:55:59;17.90;58.70
76139;DHT22;65138;50.946;7.074;2023-03-23T01:58:28;17.90;58.70
76139;DHT22;65138;50.946;7.074;2023-03-23T02:00:55;17.90;58.70
76139;DHT22;65138;50.946;7.074;2023-03-23T02:03:22;17.90;58.80
76139;DHT22;65138;50.946;7.074;2023-03-23T02:05:49;17.90;58.70
76139;DHT22;65138;50.946;7.074;2023-03-23T02:08:23;17.90;58.70
76139;DHT22;65138;50.946;7.074;2023-03-23T02:10:49;17.90;58.80
76139;DHT22;65138;50.946;7.074;2023-03-23T02:13:15;17.90;58.80
76139;DHT22;65138;50.946;7.074;2023-03-23T02:21:07;17.90;58.80
76139;DHT22;65138;50.946;7.074;2023-03-23T02:26:48;17.90;58.90
76139;DHT22;65138;50.946;7.074;2023-03-23T02:35:20;17.90;59.00
76139;DHT22;65138;50.946;7.074;2023-03-23T02:37:54;17.90;59.00
76139;DHT22;65138;50.946;7.074;2023-03-23T02:40:42;17.90;59.00
76139;DHT22;65138;50.946;7.074;2023-03-23T02:43:13;17.90;59.40
76139;DHT22;65138;50.946;7.074;2023-03-23T02:45:42;17.90;59.10
76139;DHT22;65138;50.946;7.074;2023-03-23T02:48:09;17.90;59.10
76139;DHT22;65138;50.946;7.074;2023-03-23T02:50:36;17.90;59.10
76139;DHT22;65138;50.946;7.074;2023-03-23T02:53:07;17.90;59.20
76139;DHT22;65138;50.946;7.074;2023-03-23T02:55:35;17.90;59.10
76139;DHT22;65138;50.946;7.074;2023-03-23T02:58:06;17.90;59.20
76139;DHT22;65138;50.946;7.074;2023-03-23T03:00:32;17.90;59.20
76139;DHT22;65138;50.946;7.074;2023-03-23T03:02:58;17.90;59.20
76139;DHT22;65138;50.946;7.074;2023-03-23T03:13:50;17.90;59.30
76139;DHT22;65138;50.946;7.074;2023-03-23T03:16:51;17.90;59.30
76139;DHT22;65138;50.946;7.074;2023-03-23T03:19:24;17.90;59.30
76139;DHT22;65138;50.946;7.074;2023-03-23T03:21:54;17.90;59.40
76139;DHT22;65138;50.946;7.074;2023-03-23T03:24:30;17.90;59.30
76139;DHT22;65138;50.946;7.074;2023-03-23T03:26:58;17.90;59.30
76139;DHT22;65138;50.946;7.074;2023-03-23T03:29:37;17.90;59.40
76139;DHT22;65138;50.946;7.074;2023-03-23T03:32:08;17.90;59.30
76139;DHT22;65138;50.946;7.074;2023-03-23T03:34:37;17.80;59.30
76139;DHT22;65138;50.946;7.074;2023-03-23T03:37:04;17.80;59.40
76139;DHT22;65138;50.946;7.074;2023-03-23T03:39:35;17.80;59.40
76139;DHT22;65138;50.946;7.074;2023-03-23T03:42:04;17.80;59.50
76139;DHT22;65138;50.946;7.074;2023-03-23T03:44:29;17.80;59.40
76139;DHT22;65138;50.946;7.074;2023-03-23T03:46:55;17.80;59.40
76139;DHT22;65138;50.946;7.074;2023-03-23T03:49:21;17.80;59.50
76139;DHT22;65138;50.946;7.074;2023-03-23T03:51:48;17.80;59.50
76139;DHT22;65138;50.946;7.074;2023-03-23T03:54:21;17.80;59.40
76139;DHT22;65138;50.946;7.074;2023-03-23T03:56:46;17.80;59.40
76139;DHT22;65138;50.946;7.074;2023-03-23T03:59:34;17.80;59.50
76139;DHT22;65138;50.946;7.074;2023-03-23T04:02:19;17.80;59.50
76139;DHT22;65138;50.946;7.074;2023-03-23T04:04:48;17.80;59.50
76139;DHT22;65138;50.946;7.074;2023-03-23T04:07:15;17.80;59.50
76139;DHT22;65138;50.946;7.074;2023-03-23T04:09:43;17.80;59.50
76139;DHT22;65138;50.946;7.074;2023-03-23T04:12:11;17.80;59.50
76139;DHT22;65138;50.946;7.074;2023-03-23T04:14:54;17.80;59.50
76139;DHT22;65138;50.946;7.074;2023-03-23T04:17:22;17.80;59.50
76139;DHT22;65138;50.946;7.074;2023-03-23T04:19:47;17.80;60.20
76139;DHT22;65138;50.946;7.074;2023-03-23T04:22:14;17.80;59.50
76139;DHT22;65138;50.946;7.074;2023-03-23T04:24:42;17.80;59.50
76139;DHT22;65138;50.946;7.074;2023-03-23T04:27:11;17.80;59.60
76139;DHT22;65138;50.946;7.074;2023-03-23T04:29:38;17.80;59.60
76139;DHT22;65138;50.946;7.074;2023-03-23T04:32:21;17.80;59.60
76139;DHT22;65138;50.946;7.074;2023-03-23T04:34:51;17.80;59.60
76139;DHT22;65138;50.946;7.074;2023-03-23T04:37:19;17.80;59.60
76139;DHT22;65138;50.946;7.074;2023-03-23T04:39:44;17.80;59.60
76139;DHT22;65138;50.946;7.074;2023-03-23T04:42:11;17.80;59.60
76139;DHT22;65138;50.946;7.074;2023-03-23T04:45:02;17.80;59.60
76139;DHT22;65138;50.946;7.074;2023-03-23T04:47:36;17.80;59.60
76139;DHT22;65138;50.946;7.074;2023-03-23T04:50:10;17.80;59.70
76139;DHT22;65138;50.946;7.074;2023-03-23T04:52:38;17.80;59.70
76139;DHT22;65138;50.946;7.074;2023-03-23T04:55:07;17.80;59.70
76139;DHT22;65138;50.946;7.074;2023-03-23T04:57:34;17.80;59.80
76139;DHT22;65138;50.946;7.074;2023-03-23T05:00:25;17.80;59.70
76139;DHT22;65138;50.946;7.074;2023-03-23T05:02:53;17.80;59.70
76139;DHT22;65138;50.946;7.074;2023-03-23T05:05:22;17.80;59.80
76139;DHT22;65138;50.946;7.074;2023-03-23T05:07:51;17.80;59.80
76139;DHT22;65138;50.946;7.074;2023-03-23T05:10:20;17.80;59.80
76139;DHT22;65138;50.946;7.074;2023-03-23T05:12:46;17.80;59.70
76139;DHT22;65138;50.946;7.074;2023-03-23T05:15:13;17.80;59.70
76139;DHT22;65138;50.946;7.074;2023-03-23T05:17:40;17.80;59.60
76139;DHT22;65138;50.946;7.074;2023-03-23T05:20:18;17.90;59.70
76139;DHT22;65138;50.946;7.074;2023-03-23T05:22:48;17.90;59.60
76139;DHT22;65138;50.946;7.074;2023-03-23T05:25:17;17.90;59.60
76139;DHT22;65138;50.946;7.074;2023-03-23T05:27:50;17.90;59.60
76139;DHT22;65138;50.946;7.074;2023-03-23T05:30:25;18.00;59.60
76139;DHT22;65138;50.946;7.074;2023-03-23T05:32:51;18.00;59.60
76139;DHT22;65138;50.946;7.074;2023-03-23T05:35:34;18.00;59.60
76139;DHT22;65138;50.946;7.074;2023-03-23T05:38:00;18.00;59.60
76139;DHT22;65138;50.946;7.074;2023-03-23T05:40:27;18.00;59.50
76139;DHT22;65138;50.946;7.074;2023-03-23T05:43:01;18.00;60.20
76139;DHT22;65138;50.946;7.074;2023-03-23T05:45:42;18.10;59.50
76139;DHT22;65138;50.946;7.074;2023-03-23T05:48:08;17.40;63.40
76139;DHT22;65138;50.946;7.074;2023-03-23T05:50:34;17.40;62.60
76139;DHT22;65138;50.946;7.074;2023-03-23T05:53:00;17.70;62.50
76139;DHT22;65138;50.946;7.074;2023-03-23T05:55:30;17.60;63.30
76139;DHT22;65138;50.946;7.074;2023-03-23T05:58:05;17.70;63.10
76139;DHT22;65138;50.946;7.074;2023-03-23T06:00:35;18.10;62.00
76139;DHT22;65138;50.946;7.074;2023-03-23T06:03:12;18.30;61.80
76139;DHT22;65138;50.946;7.074;2023-03-23T06:05:47;18.50;60.90
76139;DHT22;65138;50.946;7.074;2023-03-23T06:08:17;18.60;61.40
76139;DHT22;65138;50.946;7.074;2023-03-23T06:10:43;18.60;60.40
76139;DHT22;65138;50.946;7.074;2023-03-23T06:13:11;18.70;61.70
76139;DHT22;65138;50.946;7.074;2023-03-23T06:15:43;18.80;62.30
76139;DHT22;65138;50.946;7.074;2023-03-23T06:18:41;18.90;61.50
76139;DHT22;65138;50.946;7.074;2023-03-23T06:21:34;18.90;59.80
76139;DHT22;65138;50.946;7.074;2023-03-23T06:24:14;18.80;60.90
76139;DHT22;65138;50.946;7.074;2023-03-23T06:26:40;19.00;60.00
76139;DHT22;65138;50.946;7.074;2023-03-23T06:29:14;19.10;60.70
76139;DHT22;65138;50.946;7.074;2023-03-23T06:31:47;19.10;60.80
76139;DHT22;65138;50.946;7.074;2023-03-23T06:34:13;19.20;61.10
76139;DHT22;65138;50.946;7.074;2023-03-23T06:37:15;19.20;60.90
76139;DHT22;65138;50.946;7.074;2023-03-23T06:40:19;19.20;60.50
76139;DHT22;65138;50.946;7.074;2023-03-23T06:42:52;19.20;61.00
76139;DHT22;65138;50.946;7.074;2023-03-23T06:45:40;19.30;60.80
76139;DHT22;65138;50.946;7.074;2023-03-23T06:48:24;19.30;59.60
76139;DHT22;65138;50.946;7.074;2023-03-23T06:50:50;19.20;59.60
76139;DHT22;65138;50.946;7.074;2023-03-23T06:53:17;19.20;60.60
76139;DHT22;65138;50.946;7.074;2023-03-23T06:55:46;19.20;59.70
76139;DHT22;65138;50.946;7.074;2023-03-23T06:58:12;19.30;60.10
76139;DHT22;65138;50.946;7.074;2023-03-23T07:00:38;19.40;59.90
76139;DHT22;65138;50.946;7.074;2023-03-23T07:03:06;19.40;59.10
76139;DHT22;65138;50.946;7.074;2023-03-23T07:05:35;19.00;59.60
76139;DHT22;65138;50.946;7.074;2023-03-23T07:08:03;19.10;59.60
76139;DHT22;65138;50.946;7.074;2023-03-23T07:10:33;19.20;59.60
76139;DHT22;65138;50.946;7.074;2023-03-23T07:12:59;19.30;59.40
76139;DHT22;65138;50.946;7.074;2023-03-23T07:15:27;19.30;59.30
76139;DHT22;65138;50.946;7.074;2023-03-23T07:17:55;19.30;59.30
76139;DHT22;65138;50.946;7.074;2023-03-23T07:20:35;19.40;59.50
76139;DHT22;65138;50.946;7.074;2023-03-23T07:23:01;19.40;59.10
76139;DHT22;65138;50.946;7.074;2023-03-23T07:25:49;19.40;59.60
76139;DHT22;65138;50.946;7.074;2023-03-23T07:28:20;19.50;59.20
76139;DHT22;65138;50.946;7.074;2023-03-23T07:30:47;19.40;59.00
76139;DHT22;65138;50.946;7.074;2023-03-23T07:33:12;19.40;58.90
76139;DHT22;65138;50.946;7.074;2023-03-23T07:35:39;19.40;58.90
76139;DHT22;65138;50.946;7.074;2023-03-23T07:38:11;19.40;58.60
76139;DHT22;65138;50.946;7.074;2023-03-23T07:40:37;19.50;58.90
76139;DHT22;65138;50.946;7.074;2023-03-23T07:43:08;19.60;58.60
76139;DHT22;65138;50.946;7.074;2023-03-23T07:45:54;19.50;58.50
76139;DHT22;65138;50.946;7.074;2023-03-23T07:48:23;19.50;58.60
76139;DHT22;65138;50.946;7.074;2023-03-23T07:50:49;19.40;58.60
76139;DHT22;65138;50.946;7.074;2023-03-23T07:53:15;19.30;58.70
76139;DHT22;65138;50.946;7.074;2023-03-23T07:55:44;19.30;58.60
76139;DHT22;65138;50.946;7.074;2023-03-23T07:58:39;19.30;58.50
76139;DHT22;65138;50.946;7.074;2023-03-23T08:01:04;19.30;58.40
76139;DHT22;65138;50.946;7.074;2023-03-23T08:03:33;19.30;58.30
76139;DHT22;65138;50.946;7.074;2023-03-23T08:06:12;19.30;58.30
76139;DHT22;65138;50.946;7.074;2023-03-23T08:08:56;19.30;58.30
76139;DHT22;65138;50.946;7.074;2023-03-23T08:11:41;19.30;58.20
76139;DHT22;65138;50.946;7.074;2023-03-23T08:14:29;19.30;58.20
76139;DHT22;65138;50.946;7.074;2023-03-23T08:17:14;19.30;58.10
76139;DHT22;65138;50.946;7.074;2023-03-23T08:20:07;19.30;58.10
76139;DHT22;65138;50.946;7.074;2023-03-23T08:22:56;19.40;58.10
76139;DHT22;65138;50.946;7.074;2023-03-23T08:25:35;19.40;58.00
76139;DHT22;65138;50.946;7.074;2023-03-23T08:28:23;19.40;58.00
76139;DHT22;65138;50.946;7.074;2023-03-23T08:31:06;19.30;58.00
76139;DHT22;65138;50.946;7.074;2023-03-23T08:33:43;19.30;57.90
76139;DHT22;65138;50.946;7.074;2023-03-23T08:36:37;19.20;58.10
76139;DHT22;65138;50.946;7.074;2023-03-23T08:39:12;19.20;58.00
76139;DHT22;65138;50.946;7.074;2023-03-23T08:41:54;19.30;58.00
76139;DHT22;65138;50.946;7.074;2023-03-23T08:44:38;19.30;57.70
76139;DHT22;65138;50.946;7.074;2023-03-23T08:47:19;19.30;57.70
76139;DHT22;65138;50.946;7.074;2023-03-23T08:49:54;19.30;57.70
76139;DHT22;65138;50.946;7.074;2023-03-23T08:52:46;19.30;57.70
76139;DHT22;65138;50.946;7.074;2023-03-23T08:55:19;19.30;57.70
76139;DHT22;65138;50.946;7.074;2023-03-23T08:57:59;19.30;57.70
76139;DHT22;65138;50.946;7.074;2023-03-23T09:00:46;19.40;57.70
76139;DHT22;65138;50.946;7.074;2023-03-23T09:03:20;19.30;57.60
76139;DHT22;65138;50.946;7.074;2023-03-23T09:06:08;19.40;57.60
76139;DHT22;65138;50.946;7.074;2023-03-23T09:08:42;19.40;57.60
76139;DHT22;65138;50.946;7.074;2023-03-23T09:11:09;19.40;57.60
76139;DHT22;65138;50.946;7.074;2023-03-23T09:13:36;19.30;57.70
76139;DHT22;65138;50.946;7.074;2023-03-23T09:16:03;19.40;57.60
76139;DHT22;65138;50.946;7.074;2023-03-23T09:18:29;19.40;57.60
76139;DHT22;65138;50.946;7.074;2023-03-23T09:20:56;19.50;57.50
76139;DHT22;65138;50.946;7.074;2023-03-23T09:23:22;19.50;58.80
76139;DHT22;65138;50.946;7.074;2023-03-23T09:25:48;19.60;58.60
76139;DHT22;65138;50.946;7.074;2023-03-23T09:28:14;19.80;59.00
76139;DHT22;65138;50.946;7.074;2023-03-23T09:30:40;19.80;59.00
76139;DHT22;65138;50.946;7.074;2023-03-23T09:33:07;19.80;59.10
76139;DHT22;65138;50.946;7.074;2023-03-23T09:35:34;19.80;59.20
76139;DHT22;65138;50.946;7.074;2023-03-23T09:38:02;19.80;59.50
76139;DHT22;65138;50.946;7.074;2023-03-23T09:41:00;19.90;59.20
76139;DHT22;65138;50.946;7.074;2023-03-23T09:49:10;20.00;60.40
76139;DHT22;65138;50.946;7.074;2023-03-23T09:51:55;19.90;58.90
76139;DHT22;65138;50.946;7.074;2023-03-23T09:54:30;19.70;58.50
76139;DHT22;65138;50.946;7.074;2023-03-23T09:57:00;19.70;58.20
76139;DHT22;65138;50.946;7.074;2023-03-23T09:59:34;19.60;58.00
76139;DHT22;65138;50.946;7.074;2023-03-23T10:02:12;19.60;57.90
76139;DHT22;65138;50.946;7.074;2023-03-23T10:04:48;19.60;57.70
76139;DHT22;65138;50.946;7.074;2023-03-23T10:07:17;19.60;57.70
76139;DHT22;65138;50.946;7.074;2023-03-23T10:09:46;19.60;57.60
76139;DHT22;65138;50.946;7.074;2023-03-23T10:12:44;19.60;57.50
76139;DHT22;65138;50.946;7.074;2023-03-23T10:20:47;19.60;57.50
76139;DHT22;65138;50.946;7.074;2023-03-23T10:28:52;19.60;57.50
76139;DHT22;65138;50.946;7.074;2023-03-23T10:31:24;19.60;57.50
76139;DHT22;65138;50.946;7.074;2023-03-23T10:33:52;19.40;56.60
76139;DHT22;65138;50.946;7.074;2023-03-23T10:39:18;18.40;58.00
76139;DHT22;65138;50.946;7.074;2023-03-23T10:41:45;18.10;58.80
76139;DHT22;65138;50.946;7.074;2023-03-23T10:44:18;18.20;59.20
76139;DHT22;65138;50.946;7.074;2023-03-23T10:47:06;18.60;58.70
76139;DHT22;65138;50.946;7.074;2023-03-23T10:49:39;18.80;57.90
76139;DHT22;65138;50.946;7.074;2023-03-23T10:55:03;18.90;57.70
76139;DHT22;65138;50.946;7.074;2023-03-23T10:57:32;19.10;57.40
76139;DHT22;65138;50.946;7.074;2023-03-23T11:00:20;19.30;57.10
76139;DHT22;65138;50.946;7.074;2023-03-23T11:03:07;19.30;57.10
76139;DHT22;65138;50.946;7.074;2023-03-23T11:05:55;19.50;56.90
76139;DHT22;65138;50.946;7.074;2023-03-23T11:08:31;19.50;56.90
76139;DHT22;65138;50.946;7.074;2023-03-23T11:11:20;19.50;57.40
76139;DHT22;65138;50.946;7.074;2023-03-23T11:13:52;19.50;56.80
76139;DHT22;65138;50.946;7.074;2023-03-23T11:16:50;19.50;57.10
76139;DHT22;65138;50.946;7.074;2023-03-23T11:19:22;19.50;57.10
76139;DHT22;65138;50.946;7.074;2023-03-23T11:21:52;19.70;57.10
76139;DHT22;65138;50.946;7.074;2023-03-23T11:24:21;19.80;56.90
76139;DHT22;65138;50.946;7.074;2023-03-23T11:26:46;19.70;56.80
76139;DHT22;65138;50.946;7.074;2023-03-23T11:29:18;19.70;57.00
76139;DHT22;65138;50.946;7.074;2023-03-23T11:31:47;19.60;57.10
76139;DHT22;65138;50.946;7.074;2023-03-23T11:34:26;19.60;57.20
76139;DHT22;65138;50.946;7.074;2023-03-23T11:40:00;19.60;57.20
76139;DHT22;65138;50.946;7.074;2023-03-23T11:48:07;19.60;57.30
76139;DHT22;65138;50.946;7.074;2023-03-23T11:50:49;19.50;57.50
76139;DHT22;65138;50.946;7.074;2023-03-23T11:53:20;19.10;58.30
76139;DHT22;65138;50.946;7.074;2023-03-23T11:56:00;18.70;58.90
76139;DHT22;65138;50.946;7.074;2023-03-23T11:58:27;18.40;59.60
76139;DHT22;65138;50.946;7.074;2023-03-23T12:01:10;18.40;59.80
76139;DHT22;65138;50.946;7.074;2023-03-23T12:09:22;18.30;60.80
76139;DHT22;65138;50.946;7.074;2023-03-23T12:12:27;18.20;61.70
76139;DHT22;65138;50.946;7.074;2023-03-23T12:15:13;18.30;60.90
76139;DHT22;65138;50.946;7.074;2023-03-23T12:18:06;18.50;60.30
76139;DHT22;65138;50.946;7.074;2023-03-23T12:31:39;18.70;59.90
76139;DHT22;65138;50.946;7.074;2023-03-23T12:45:24;18.20;60.60
76139;DHT22;65138;50.946;7.074;2023-03-23T12:48:04;18.10;60.60
76139;DHT22;65138;50.946;7.074;2023-03-23T12:53:26;18.10;61.10
76139;DHT22;65138;50.946;7.074;2023-03-23T12:58:39;18.10;60.60
76139;DHT22;65138;50.946;7.074;2023-03-23T13:01:19;18.00;61.30
76139;DHT22;65138;50.946;7.074;2023-03-23T13:04:09;18.00;60.80
76139;DHT22;65138;50.946;7.074;2023-03-23T13:06:37;18.10;60.50
76139;DHT22;65138;50.946;7.074;2023-03-23T13:09:25;18.00;60.90
76139;DHT22;65138;50.946;7.074;2023-03-23T13:11:53;17.90;60.20
76139;DHT22;65138;50.946;7.074;2023-03-23T13:14:41;18.00;60.20
76139;DHT22;65138;50.946;7.074;2023-03-23T13:20:27;18.00;60.20
76139;DHT22;65138;50.946;7.074;2023-03-23T13:23:12;18.00;60.30
76139;DHT22;65138;50.946;7.074;2023-03-23T13:25:56;17.90;60.30
76139;DHT22;65138;50.946;7.074;2023-03-23T13:28:23;17.90;60.10
76139;DHT22;65138;50.946;7.074;2023-03-23T13:33:34;17.90;60.50
76139;DHT22;65138;50.946;7.074;2023-03-23T13:36:11;17.90;60.30
76139;DHT22;65138;50.946;7.074;2023-03-23T13:38:38;17.80;60.80
76139;DHT22;65138;50.946;7.074;2023-03-23T13:41:14;17.90;60.70
76139;DHT22;65138;50.946;7.074;2023-03-23T13:43:42;17.90;60.40
76139;DHT22;65138;50.946;7.074;2023-03-23T13:48:50;18.10;60.20
76139;DHT22;65138;50.946;7.074;2023-03-23T13:57:02;18.30;59.60
76139;DHT22;65138;50.946;7.074;2023-03-23T14:02:30;18.60;58.80
76139;DHT22;65138;50.946;7.074;2023-03-23T14:04:57;18.60;58.90
76139;DHT22;65138;50.946;7.074;2023-03-23T14:07:23;18.60;59.00
76139;DHT22;65138;50.946;7.074;2023-03-23T14:09:50;18.70;58.80
76139;DHT22;65138;50.946;7.074;2023-03-23T14:14:56;18.80;58.60
76139;DHT22;65138;50.946;7.074;2023-03-23T14:17:28;18.80;58.40
76139;DHT22;65138;50.946;7.074;2023-03-23T14:19:57;18.90;58.30
76139;DHT22;65138;50.946;7.074;2023-03-23T14:22:36;18.90;58.30
76139;DHT22;65138;50.946;7.074;2023-03-23T14:25:11;18.90;58.30
76139;DHT22;65138;50.946;7.074;2023-03-23T14:27:38;18.90;58.30
76139;DHT22;65138;50.946;7.074;2023-03-23T14:30:09;18.90;58.20
76139;DHT22;65138;50.946;7.074;2023-03-23T14:32:38;18.90;58.20
76139;DHT22;65138;50.946;7.074;2023-03-23T14:35:30;19.00;58.30
76139;DHT22;65138;50.946;7.074;2023-03-23T14:37:57;19.00;58.20
76139;DHT22;65138;50.946;7.074;2023-03-23T14:40:26;19.00;58.20
76139;DHT22;65138;50.946;7.074;2023-03-23T14:42:53;19.00;58.20
76139;DHT22;65138;50.946;7.074;2023-03-23T14:45:21;19.00;58.20
76139;DHT22;65138;50.946;7.074;2023-03-23T14:48:00;18.80;58.50
76139;DHT22;65138;50.946;7.074;2023-03-23T14:50:29;18.90;58.60
76139;DHT22;65138;50.946;7.074;2023-03-23T14:53:07;18.90;58.40
76139;DHT22;65138;50.946;7.074;2023-03-23T14:55:34;19.00;58.30
76139;DHT22;65138;50.946;7.074;2023-03-23T14:58:08;19.00;58.30
76139;DHT22;65138;50.946;7.074;2023-03-23T15:00:39;19.00;58.20
76139;DHT22;65138;50.946;7.074;2023-03-23T15:03:12;19.00;58.20
76139;DHT22;65138;50.946;7.074;2023-03-23T15:05:43;19.00;58.20
76139;DHT22;65138;50.946;7.074;2023-03-23T15:08:18;19.00;58.20
76139;DHT22;65138;50.946;7.074;2023-03-23T15:11:03;19.10;58.20
76139;DHT22;65138;50.946;7.074;2023-03-23T15:13:30;19.10;58.20
76139;DHT22;65138;50.946;7.074;2023-03-23T15:16:11;19.10;58.20
76139;DHT22;65138;50.946;7.074;2023-03-23T15:18:39;19.10;58.10
76139;DHT22;65138;50.946;7.074;2023-03-23T15:21:11;19.10;58.10
76139;DHT22;65138;50.946;7.074;2023-03-23T15:23:42;19.10;58.10
76139;DHT22;65138;50.946;7.074;2023-03-23T15:26:19;19.20;58.10
76139;DHT22;65138;50.946;7.074;2023-03-23T15:28:46;19.20;58.10
76139;DHT22;65138;50.946;7.074;2023-03-23T15:31:12;19.20;58.10
76139;DHT22;65138;50.946;7.074;2023-03-23T15:33:39;19.20;58.20
76139;DHT22;65138;50.946;7.074;2023-03-23T15:36:14;19.00;58.20
76139;DHT22;65138;50.946;7.074;2023-03-23T15:38:43;18.80;58.80
76139;DHT22;65138;50.946;7.074;2023-03-23T15:41:25;18.90;58.60
76139;DHT22;65138;50.946;7.074;2023-03-23T15:43:54;19.10;58.30
76139;DHT22;65138;50.946;7.074;2023-03-23T15:46:24;18.90;59.10
76139;DHT22;65138;50.946;7.074;2023-03-23T15:51:21;18.00;60.90
76139;DHT22;65138;50.946;7.074;2023-03-23T15:53:49;17.90;61.40
76139;DHT22;65138;50.946;7.074;2023-03-23T15:56:15;17.90;61.40
76139;DHT22;65138;50.946;7.074;2023-03-23T15:58:41;17.80;61.10
76139;DHT22;65138;50.946;7.074;2023-03-23T16:01:12;17.70;61.20
76139;DHT22;65138;50.946;7.074;2023-03-23T16:03:55;17.60;61.30
76139;DHT22;65138;50.946;7.074;2023-03-23T16:06:24;17.60;61.20
76139;DHT22;65138;50.946;7.074;2023-03-23T16:08:51;17.60;61.00
76139;DHT22;65138;50.946;7.074;2023-03-23T16:11:18;17.60;61.30
76139;DHT22;65138;50.946;7.074;2023-03-23T16:13:44;17.60;61.50
76139;DHT22;65138;50.946;7.074;2023-03-23T16:16:18;17.50;61.50
76139;DHT22;65138;50.946;7.074;2023-03-23T16:18:44;17.50;61.50
76139;DHT22;65138;50.946;7.074;2023-03-23T16:21:10;17.70;61.20
76139;DHT22;65138;50.946;7.074;2023-03-23T16:23:35;18.30;59.40
76139;DHT22;65138;50.946;7.074;2023-03-23T16:26:02;18.50;58.90
76139;DHT22;65138;50.946;7.074;2023-03-23T16:28:28;18.60;58.70
76139;DHT22;65138;50.946;7.074;2023-03-23T16:30:53;18.80;58.40
76139;DHT22;65138;50.946;7.074;2023-03-23T16:33:19;18.80;58.30
76139;DHT22;65138;50.946;7.074;2023-03-23T16:35:45;18.90;58.20
76139;DHT22;65138;50.946;7.074;2023-03-23T16:38:14;18.90;58.20
76139;DHT22;65138;50.946;7.074;2023-03-23T16:40:44;18.90;58.10
76139;DHT22;65138;50.946;7.074;2023-03-23T16:43:10;19.00;58.10
76139;DHT22;65138;50.946;7.074;2023-03-23T16:45:38;19.00;58.10
76139;DHT22;65138;50.946;7.074;2023-03-23T16:48:04;19.00;58.00
76139;DHT22;65138;50.946;7.074;2023-03-23T16:50:30;19.00;58.00
76139;DHT22;65138;50.946;7.074;2023-03-23T16:52:56;19.00;58.00
76139;DHT22;65138;50.946;7.074;2023-03-23T16:55:23;19.00;57.90
76139;DHT22;65138;50.946;7.074;2023-03-23T16:57:51;19.00;57.90
76139;DHT22;65138;50.946;7.074;2023-03-23T17:00:17;19.00;57.90
76139;DHT22;65138;50.946;7.074;2023-03-23T17:02:49;19.00;58.00
76139;DHT22;65138;50.946;7.074;2023-03-23T17:05:17;19.00;57.90
76139;DHT22;65138;50.946;7.074;2023-03-23T17:07:42;19.00;57.90
76139;DHT22;65138;50.946;7.074;2023-03-23T17:10:09;19.00;57.90
76139;DHT22;65138;50.946;7.074;2023-03-23T17:12:35;19.00;57.90
76139;DHT22;65138;50.946;7.074;2023-03-23T17:15:01;19.10;57.90
76139;DHT22;65138;50.946;7.074;2023-03-23T17:17:27;19.10;57.80
76139;DHT22;65138;50.946;7.074;2023-03-23T17:19:53;19.00;57.90
76139;DHT22;65138;50.946;7.074;2023-03-23T17:22:18;19.10;57.90
76139;DHT22;65138;50.946;7.074;2023-03-23T17:24:44;19.10;58.00
76139;DHT22;65138;50.946;7.074;2023-03-23T17:27:13;19.10;57.90
76139;DHT22;65138;50.946;7.074;2023-03-23T17:29:39;19.10;57.90
76139;DHT22;65138;50.946;7.074;2023-03-23T17:32:04;19.10;57.90
76139;DHT22;65138;50.946;7.074;2023-03-23T17:34:30;19.10;57.90
76139;DHT22;65138;50.946;7.074;2023-03-23T17:36:56;19.10;57.90
76139;DHT22;65138;50.946;7.074;2023-03-23T17:39:21;19.10;58.00
76139;DHT22;65138;50.946;7.074;2023-03-23T17:41:47;19.10;57.90
76139;DHT22;65138;50.946;7.074;2023-03-23T17:44:12;19.10;57.90
76139;DHT22;65138;50.946;7.074;2023-03-23T17:46:38;19.10;57.90
76139;DHT22;65138;50.946;7.074;2023-03-23T17:49:04;19.00;57.90
76139;DHT22;65138;50.946;7.074;2023-03-23T17:51:30;19.10;58.00